Calanus - UK — GBJK — position and weather

sailwx.info

Track history (hours):
 
Tides and Currents Weather Stations Pressure Air Temp Water Temp Dewpoint Dewpoint Depression Visibility Wind Speed Wind Dir Waves Ship Positions

Oceanographic research ship Calanus - UK (UK)

Detailed information on ship capabilities available from University of Delaware's Ocean Information Center.

Last reported at 2017-Jun-14 16:09 UTC. Time now 2017-Jul-20 18:38 UTC.
Position N 56°27' W 005°26'.
Warning: this ship's position is 36 days out of date.

Length 19 m.

Type: Dredging. MMSI: 235050871.

Date/timePositionNaut miles runAvg speedWind from/ knotsBaromVisibWave heightAir tempDewpointWater temp
2017-Jun-14 16:09N 56°27' W 005°26'0 0.0
2017-Jun-14 16:00N 56°27' W 005°26'2 3.2
2017-Jun-14 15:30N 56°28' W 005°28'3 6.3
2017-Jun-14 15:00N 56°31' W 005°27'2 2.2
2017-Jun-14 14:00N 56°31' W 005°23'1 2.0
2017-Jun-14 13:22N 56°31' W 005°21'1 1.5
2017-Jun-14 12:26N 56°32' W 005°19'3 5.8
2017-Jun-14 12:00N 56°31' W 005°23'2 3.5
2017-Jun-14 11:25N 56°32' W 005°27'0 0.1
2017-Jun-14 11:00N 56°32' W 005°27'3 5.0
2017-Jun-14 10:28N 56°30' W 005°29'0 0.4
2017-Jun-14 10:00N 56°29' W 005°29'2 3.9
2017-Jun-14 09:26N 56°29' W 005°25'0 0.0
2017-Jun-14 08:59N 56°29' W 005°25'0 1.0
2017-Jun-14 08:30N 56°29' W 005°26'2 2.9
2017-Jun-14 07:53N 56°27' W 005°26'0 0.0
2017-Jun-13 17:43N 56°27' W 005°26'1 2.9
2017-Jun-13 17:30N 56°27' W 005°27'8 1.0
2017-Jun-13 09:35N 56°23' W 005°39'1 7.3
2017-Jun-13 09:28N 56°24' W 005°37'3 7.2
2017-Jun-13 08:59N 56°26' W 005°32'4 7.3
2017-Jun-13 08:30N 56°28' W 005°27'1 1.2
2017-Jun-13 07:58N 56°27' W 005°26'0 0.0
2017-Jun-12 17:37N 56°27' W 005°26'0 2.5
2017-Jun-12 17:30N 56°27' W 005°27'4 7.4
2017-Jun-12 16:58N 56°27' W 005°33'3 0.4
2017-Jun-12 09:51N 56°29' W 005°38'2 5.5
2017-Jun-12 09:29N 56°27' W 005°36'3 6.4
2017-Jun-12 08:59N 56°27' W 005°30'2 3.1
2017-Jun-12 08:19N 56°27' W 005°26'0 0.0
2017-Jun-12 07:58N 56°27' W 005°26'  
2017-Jun-09 13:59N 56°27' W 005°26'0 0.0
2017-Jun-08 16:14N 56°27' W 005°26'1 2.2
2017-Jun-08 16:00N 56°28' W 005°27'2 4.3
2017-Jun-08 15:30N 56°29' W 005°28'3 6.4
2017-Jun-08 15:00N 56°32' W 005°25'2 3.2
2017-Jun-08 14:21N 56°31' W 005°22'1 1.5
2017-Jun-08 13:30N 56°32' W 005°20'0 0.1
2017-Jun-08 12:59N 56°32' W 005°20'2 4.5
2017-Jun-08 12:30N 56°32' W 005°24'3 5.4
2017-Jun-08 12:00N 56°30' W 005°28'2 3.6
2017-Jun-08 11:26N 56°29' W 005°30'0 0.2
2017-Jun-08 10:55N 56°29' W 005°30'0 0.3
2017-Jun-08 10:28N 56°29' W 005°30'2 5.2
2017-Jun-08 10:00N 56°27' W 005°26'0 0.4
2017-Jun-08 09:26N 56°27' W 005°26'0 0.0
2017-Jun-08 08:59N 56°27' W 005°26'0 0.0
2017-Jun-08 08:29N 56°27' W 005°26'  
Track history (hours):
 
Tides and Currents Weather Stations Pressure Air Temp Water Temp Dewpoint Dewpoint Depression Visibility Wind Speed Wind Dir Waves Ship Positions

Oceanographic research ship Calanus - UK (UK)

Detailed information on ship capabilities available from University of Delaware's Ocean Information Center.

Last reported at 2017-Jun-14 16:09 UTC. Time now 2017-Jul-20 18:38 UTC.
Position N 56°27' W 005°26'.
Warning: this ship's position is 36 days out of date.

Length 19 m.

Type: Dredging. MMSI: 235050871.

Date/timePositionNaut miles runAvg speedWind from/ knotsBaromVisibWave heightAir tempDewpointWater temp
2017-Jun-14 16:09N 56°27' W 005°26'0 0.0
2017-Jun-14 16:00N 56°27' W 005°26'2 3.2
2017-Jun-14 15:30N 56°28' W 005°28'3 6.3
2017-Jun-14 15:00N 56°31' W 005°27'2 2.2
2017-Jun-14 14:00N 56°31' W 005°23'1 2.0
2017-Jun-14 13:22N 56°31' W 005°21'1 1.5
2017-Jun-14 12:26N 56°32' W 005°19'3 5.8
2017-Jun-14 12:00N 56°31' W 005°23'2 3.5
2017-Jun-14 11:25N 56°32' W 005°27'0 0.1
2017-Jun-14 11:00N 56°32' W 005°27'3 5.0
2017-Jun-14 10:28N 56°30' W 005°29'0 0.4
2017-Jun-14 10:00N 56°29' W 005°29'2 3.9
2017-Jun-14 09:26N 56°29' W 005°25'0 0.0
2017-Jun-14 08:59N 56°29' W 005°25'0 1.0
2017-Jun-14 08:30N 56°29' W 005°26'2 2.9
2017-Jun-14 07:53N 56°27' W 005°26'0 0.0
2017-Jun-13 17:43N 56°27' W 005°26'1 2.9
2017-Jun-13 17:30N 56°27' W 005°27'8 1.0
2017-Jun-13 09:35N 56°23' W 005°39'1 7.3
2017-Jun-13 09:28N 56°24' W 005°37'3 7.2
2017-Jun-13 08:59N 56°26' W 005°32'4 7.3
2017-Jun-13 08:30N 56°28' W 005°27'1 1.2
2017-Jun-13 07:58N 56°27' W 005°26'0 0.0
2017-Jun-12 17:37N 56°27' W 005°26'0 2.5
2017-Jun-12 17:30N 56°27' W 005°27'4 7.4
2017-Jun-12 16:58N 56°27' W 005°33'3 0.4
2017-Jun-12 09:51N 56°29' W 005°38'2 5.5
2017-Jun-12 09:29N 56°27' W 005°36'3 6.4
2017-Jun-12 08:59N 56°27' W 005°30'2 3.1
2017-Jun-12 08:19N 56°27' W 005°26'0 0.0
2017-Jun-12 07:58N 56°27' W 005°26'  
2017-Jun-09 13:59N 56°27' W 005°26'0 0.0
2017-Jun-08 16:14N 56°27' W 005°26'1 2.2
2017-Jun-08 16:00N 56°28' W 005°27'2 4.3
2017-Jun-08 15:30N 56°29' W 005°28'3 6.4
2017-Jun-08 15:00N 56°32' W 005°25'2 3.2
2017-Jun-08 14:21N 56°31' W 005°22'1 1.5
2017-Jun-08 13:30N 56°32' W 005°20'0 0.1
2017-Jun-08 12:59N 56°32' W 005°20'2 4.5
2017-Jun-08 12:30N 56°32' W 005°24'3 5.4
2017-Jun-08 12:00N 56°30' W 005°28'2 3.6
2017-Jun-08 11:26N 56°29' W 005°30'0 0.2
2017-Jun-08 10:55N 56°29' W 005°30'0 0.3
2017-Jun-08 10:28N 56°29' W 005°30'2 5.2
2017-Jun-08 10:00N 56°27' W 005°26'0 0.4
2017-Jun-08 09:26N 56°27' W 005°26'0 0.0
2017-Jun-08 08:59N 56°27' W 005°26'0 0.0
2017-Jun-08 08:29N 56°27' W 005°26'  

Dump ship's entire track history